createdAt,value
2023-01-21T00:00:52.945Z,-1.35
2023-01-21T00:03:26.300Z,-1.38
2023-01-21T00:05:59.331Z,-1.38
2023-01-21T00:08:32.338Z,-1.41
2023-01-21T00:11:09.612Z,-1.44
2023-01-21T00:13:45.556Z,-1.44
2023-01-21T00:16:18.397Z,-1.47
2023-01-21T00:18:51.238Z,-1.49
2023-01-21T00:21:24.158Z,-1.53
2023-01-21T00:23:57.063Z,-1.55
2023-01-21T00:26:29.979Z,-1.57
2023-01-21T00:29:04.532Z,-1.59
2023-01-21T00:31:37.638Z,-1.62
2023-01-21T00:34:11.706Z,-1.61
2023-01-21T00:36:44.749Z,-1.65
2023-01-21T00:39:17.658Z,-1.65
2023-01-21T00:41:50.545Z,-1.66
2023-01-21T00:44:24.959Z,-1.66
2023-01-21T00:46:57.864Z,-1.67
2023-01-21T00:49:30.775Z,-1.70
2023-01-21T00:52:03.704Z,-1.70
2023-01-21T00:54:36.601Z,-1.72
2023-01-21T00:57:09.582Z,-1.73
2023-01-21T00:59:44.579Z,-1.73
2023-01-21T01:02:17.596Z,-1.74
2023-01-21T01:04:50.759Z,-1.76
2023-01-21T01:07:23.630Z,-1.76
2023-01-21T01:09:56.490Z,-1.77
2023-01-21T01:12:29.757Z,-1.78
2023-01-21T01:15:04.209Z,-1.78
2023-01-21T01:17:37.228Z,-1.79
2023-01-21T01:20:11.343Z,-1.82
2023-01-21T01:22:44.228Z,-1.83
2023-01-21T01:25:17.152Z,-1.84
2023-01-21T01:27:50.036Z,-1.85
2023-01-21T01:30:24.477Z,-1.85
2023-01-21T01:32:57.593Z,-1.87
2023-01-21T01:35:30.498Z,-1.89
2023-01-21T01:38:07.947Z,-1.90
2023-01-21T01:40:41.682Z,-1.90
2023-01-21T01:43:17.945Z,-1.91
2023-01-21T01:45:52.718Z,-1.92
2023-01-21T01:48:30.940Z,-1.93
2023-01-21T01:51:07.608Z,-1.96
2023-01-21T01:53:45.929Z,-1.95
2023-01-21T01:56:18.985Z,-1.98
2023-01-21T01:58:53.728Z,-2.00
2023-01-21T02:01:28.495Z,-1.98
2023-01-21T02:04:04.380Z,-2.01
2023-01-21T02:06:38.834Z,-2.02
2023-01-21T02:09:12.235Z,-2.04
2023-01-21T02:11:45.331Z,-2.07
2023-01-21T02:14:18.871Z,-2.07
2023-01-21T02:17:06.436Z,-2.09
2023-01-21T02:20:22.464Z,-2.12
2023-01-21T02:23:03.598Z,-2.13
2023-01-21T02:26:11.401Z,-2.14
2023-01-21T02:29:15.921Z,-2.15
2023-01-21T02:32:29.096Z,-2.17
2023-01-21T02:35:11.611Z,-2.19
2023-01-21T02:37:51.005Z,-2.20
2023-01-21T02:40:31.968Z,-2.21
2023-01-21T02:43:10.737Z,-2.24
2023-01-21T02:45:50.712Z,-2.25
2023-01-21T02:48:30.036Z,-2.25
2023-01-21T02:51:06.464Z,-2.26
2023-01-21T02:53:39.643Z,-2.26
2023-01-21T02:56:15.690Z,-2.26
2023-01-21T02:58:52.411Z,-2.26
2023-01-21T03:01:42.142Z,-2.25
2023-01-21T03:04:44.637Z,-2.24
2023-01-21T03:07:27.719Z,-2.24
2023-01-21T03:10:07.313Z,-2.24
2023-01-21T03:12:51.022Z,-2.24
2023-01-21T03:15:45.513Z,-2.24
2023-01-21T03:18:24.337Z,-2.26
2023-01-21T03:21:03.056Z,-2.25
2023-01-21T03:23:40.761Z,-2.26
2023-01-21T03:26:18.663Z,-2.25
2023-01-21T03:28:54.003Z,-2.27
2023-01-21T03:31:29.730Z,-2.30
2023-01-21T03:34:07.812Z,-2.26
2023-01-21T03:36:48.782Z,-2.26
2023-01-21T03:39:31.832Z,-2.25
2023-01-21T03:42:05.138Z,-2.27
2023-01-21T03:44:38.567Z,-2.26
2023-01-21T03:47:20.802Z,-2.24
2023-01-21T03:50:01.607Z,-2.22
2023-01-21T03:52:34.738Z,-2.21
2023-01-21T03:55:11.419Z,-2.16
2023-01-21T03:57:44.356Z,-2.15
2023-01-21T04:00:18.637Z,-2.11
2023-01-21T04:02:51.957Z,-2.08
2023-01-21T04:05:24.880Z,-2.08
2023-01-21T04:07:57.769Z,-2.08
2023-01-21T04:10:32.027Z,-2.08
2023-01-21T04:13:04.860Z,-2.07
2023-01-21T04:15:37.713Z,-2.07
2023-01-21T04:18:10.592Z,-2.07
2023-01-21T04:20:43.465Z,-2.11
2023-01-21T04:23:16.297Z,-2.09
2023-01-21T04:25:51.054Z,-2.10
2023-01-21T04:28:24.012Z,-2.11
2023-01-21T04:30:57.010Z,-2.12
2023-01-21T04:33:30.712Z,-2.12
2023-01-21T04:36:03.579Z,-2.09
2023-01-21T04:38:36.535Z,-2.09
2023-01-21T04:41:11.185Z,-2.07
2023-01-21T04:43:44.317Z,-2.05
2023-01-21T04:46:17.848Z,-2.04
2023-01-21T04:48:50.780Z,-2.01
2023-01-21T04:51:23.880Z,-1.99
2023-01-21T04:53:56.727Z,-1.97
2023-01-21T04:56:30.997Z,-1.95
2023-01-21T04:59:03.925Z,-1.93
2023-01-21T05:01:36.952Z,-1.92
2023-01-21T05:04:09.863Z,-1.88
2023-01-21T05:06:42.879Z,-1.87
2023-01-21T05:09:15.828Z,-1.86
2023-01-21T05:11:50.075Z,-1.79
2023-01-21T05:14:23.028Z,-1.79
2023-01-21T05:16:55.981Z,-1.77
2023-01-21T05:19:29.037Z,-1.74
2023-01-21T05:22:02.017Z,-1.72
2023-01-21T05:24:34.881Z,-1.68
2023-01-21T05:27:09.904Z,-1.66
2023-01-21T05:29:42.978Z,-1.63
2023-01-21T05:32:15.911Z,-1.60
2023-01-21T05:34:48.848Z,-1.57
2023-01-21T05:37:21.842Z,-1.54
2023-01-21T05:39:54.683Z,-1.52
2023-01-21T05:42:29.083Z,-1.50
2023-01-21T05:45:02.457Z,-1.52
2023-01-21T05:47:35.536Z,-1.47
2023-01-21T05:50:09.689Z,-1.46
2023-01-21T05:52:42.592Z,-1.43
2023-01-21T05:55:16.183Z,-1.41
2023-01-21T05:57:51.391Z,-1.34
2023-01-21T06:00:24.410Z,-1.31
2023-01-21T06:02:57.290Z,-1.24
2023-01-21T06:05:30.632Z,-1.18
2023-01-21T06:08:03.899Z,-1.11
2023-01-21T06:10:36.949Z,-1.07
2023-01-21T06:13:13.399Z,-1.02
2023-01-21T06:15:46.419Z,-0.98
2023-01-21T06:18:19.451Z,-0.94
2023-01-21T06:20:52.389Z,-0.90
2023-01-21T06:23:25.241Z,-0.87
2023-01-21T06:26:00.769Z,-0.80
2023-01-21T06:28:35.147Z,-0.76
2023-01-21T06:31:08.086Z,-0.74
2023-01-21T06:33:41.172Z,-0.69
2023-01-21T06:36:14.025Z,-0.68
2023-01-21T06:38:46.943Z,-0.67
2023-01-21T06:41:21.342Z,-0.68
2023-01-21T06:43:55.662Z,-0.68
2023-01-21T06:46:28.621Z,-0.69
2023-01-21T06:49:01.790Z,-0.70
2023-01-21T06:51:34.633Z,-0.71
2023-01-21T06:54:07.633Z,-0.73
2023-01-21T06:56:41.273Z,-0.72
2023-01-21T06:59:15.580Z,-0.71
2023-01-21T07:01:48.676Z,-0.71
2023-01-21T07:04:21.655Z,-0.70
2023-01-21T07:06:54.731Z,-0.66
2023-01-21T07:09:27.659Z,-0.61
2023-01-21T07:12:00.511Z,-0.56
2023-01-21T07:14:34.766Z,-0.49
2023-01-21T07:17:07.681Z,-0.44
2023-01-21T07:19:40.780Z,-0.35
2023-01-21T07:22:13.612Z,-0.27
2023-01-21T07:24:46.634Z,-0.20
2023-01-21T07:27:19.535Z,-0.13
2023-01-21T07:29:53.936Z,-0.06
2023-01-21T07:32:26.828Z,-0.01
2023-01-21T07:34:59.708Z,0.04
2023-01-21T07:37:32.580Z,0.09
2023-01-21T07:40:06.737Z,0.13
2023-01-21T07:42:39.617Z,0.19
2023-01-21T07:45:14.252Z,0.26
2023-01-21T07:47:47.287Z,0.30
2023-01-21T07:50:20.345Z,0.35
2023-01-21T07:52:54.436Z,0.45
2023-01-21T07:55:27.661Z,0.49
2023-01-21T07:58:01.011Z,0.54
2023-01-21T08:00:35.248Z,0.61
2023-01-21T08:03:08.148Z,0.64
2023-01-21T08:05:41.015Z,0.68
2023-01-21T08:08:13.933Z,0.73
2023-01-21T08:10:52.913Z,0.81
2023-01-21T08:13:25.935Z,0.84
2023-01-21T08:16:00.216Z,0.90
2023-01-21T08:18:33.318Z,0.96
2023-01-21T08:21:06.585Z,1.01
2023-01-21T08:23:39.545Z,1.08
2023-01-21T08:26:12.424Z,1.11
2023-01-21T08:28:45.278Z,1.18
2023-01-21T08:31:19.626Z,1.23
2023-01-21T08:33:52.496Z,1.27
2023-01-21T08:36:25.950Z,1.34
2023-01-21T08:39:01.962Z,1.38
2023-01-21T08:41:35.090Z,1.44
2023-01-21T08:44:08.434Z,1.49
2023-01-21T08:46:42.723Z,1.56
2023-01-21T08:49:15.560Z,1.62
2023-01-21T08:51:48.512Z,1.69
2023-01-21T08:54:21.420Z,1.75
2023-01-21T08:56:54.490Z,1.82
2023-01-21T08:59:30.160Z,1.87
2023-01-21T09:02:04.646Z,1.90
2023-01-21T09:04:37.565Z,1.94
2023-01-21T09:07:10.514Z,2.00
2023-01-21T09:09:43.412Z,2.03
2023-01-21T09:12:16.299Z,2.06
2023-01-21T09:14:49.128Z,2.11
2023-01-21T09:17:23.543Z,2.16
2023-01-21T09:19:56.389Z,2.21
2023-01-21T09:22:29.310Z,2.25
2023-01-21T09:25:10.179Z,2.28
2023-01-21T09:27:43.069Z,2.32
2023-01-21T09:30:16.871Z,2.37
2023-01-21T09:32:51.377Z,2.36
2023-01-21T09:35:24.249Z,2.36
2023-01-21T09:37:57.125Z,2.34
2023-01-21T09:40:30.015Z,2.35
2023-01-21T09:43:12.800Z,2.39
2023-01-21T09:45:47.856Z,2.42
2023-01-21T09:48:30.651Z,2.49
2023-01-21T09:51:09.435Z,2.55
2023-01-21T09:53:48.768Z,2.65
2023-01-21T09:56:29.261Z,2.77
2023-01-21T09:59:09.113Z,2.89
2023-01-21T10:01:43.797Z,2.98
2023-01-21T10:04:35.124Z,3.14
2023-01-21T10:07:14.407Z,3.24
2023-01-21T10:10:01.616Z,3.36
2023-01-21T10:12:58.534Z,3.45
2023-01-21T10:15:56.058Z,3.55
2023-01-21T10:18:32.456Z,3.59
2023-01-21T10:21:14.476Z,3.62
2023-01-21T10:23:50.791Z,3.62
2023-01-21T10:26:25.101Z,3.62
2023-01-21T10:28:57.967Z,3.64
2023-01-21T10:31:36.512Z,3.69
2023-01-21T10:34:15.136Z,3.72
2023-01-21T10:37:00.745Z,3.77
2023-01-21T10:39:42.757Z,3.82
2023-01-21T10:42:28.334Z,3.84
2023-01-21T10:45:08.439Z,3.85
2023-01-21T10:47:48.844Z,3.84
2023-01-21T10:50:39.565Z,3.83
2023-01-21T10:53:22.160Z,3.83
2023-01-21T10:56:13.456Z,3.82
2023-01-21T10:58:50.024Z,3.79
2023-01-21T11:01:26.813Z,3.81
2023-01-21T11:04:05.010Z,3.83
2023-01-21T11:06:38.340Z,3.80
2023-01-21T11:09:15.945Z,3.79
2023-01-21T11:11:48.845Z,3.78
2023-01-21T11:14:21.920Z,3.76
2023-01-21T11:16:55.481Z,3.70
2023-01-21T11:19:30.609Z,3.71
2023-01-21T11:22:05.587Z,3.68
2023-01-21T11:24:46.440Z,3.69
2023-01-21T11:27:21.827Z,3.69
2023-01-21T11:29:54.732Z,3.71
2023-01-21T11:32:29.654Z,3.77
2023-01-21T11:35:04.899Z,3.84
2023-01-21T11:37:39.093Z,3.91
2023-01-21T11:40:23.132Z,3.97
2023-01-21T11:42:58.251Z,4.00
2023-01-21T11:45:33.294Z,4.05
2023-01-21T11:48:20.829Z,4.11
2023-01-21T11:51:07.593Z,4.13
2023-01-21T11:53:41.231Z,4.17
2023-01-21T11:56:17.137Z,4.20
2023-01-21T11:58:50.023Z,4.21
2023-01-21T12:01:23.823Z,4.22
2023-01-21T12:04:01.030Z,4.24
2023-01-21T12:06:36.959Z,4.22
2023-01-21T12:09:19.409Z,4.22
2023-01-21T12:12:18.034Z,4.21
2023-01-21T12:14:55.197Z,4.18
2023-01-21T12:17:42.747Z,4.12
2023-01-21T12:20:35.981Z,4.06
2023-01-21T12:23:26.290Z,4.00
2023-01-21T12:26:02.428Z,3.92
2023-01-21T12:28:55.045Z,3.89
2023-01-21T12:31:33.022Z,3.85
2023-01-21T12:34:11.631Z,3.80
2023-01-21T12:36:47.871Z,3.77
2023-01-21T12:39:25.526Z,3.73
2023-01-21T12:42:07.679Z,3.68
2023-01-21T12:44:47.569Z,3.65
2023-01-21T12:47:25.860Z,3.63
2023-01-21T12:50:14.471Z,3.61
2023-01-21T12:52:58.450Z,3.59
2023-01-21T12:55:41.621Z,3.58
2023-01-21T12:58:17.091Z,3.56
2023-01-21T13:00:54.384Z,3.54
2023-01-21T13:03:34.135Z,3.52
2023-01-21T13:06:11.973Z,3.52
2023-01-21T13:08:55.877Z,3.49
2023-01-21T13:11:31.949Z,3.47
2023-01-21T13:14:29.510Z,3.45
2023-01-21T13:17:08.800Z,3.41
2023-01-21T13:19:42.007Z,3.40
2023-01-21T13:22:28.240Z,3.38
2023-01-21T13:25:12.893Z,3.37
2023-01-21T13:27:52.656Z,3.38
2023-01-21T13:30:31.604Z,3.37
2023-01-21T13:33:21.971Z,3.36
2023-01-21T13:36:07.419Z,3.39
2023-01-21T13:38:48.063Z,3.39
2023-01-21T13:41:37.028Z,3.40
2023-01-21T13:44:38.694Z,3.38
2023-01-21T13:47:27.016Z,3.38
2023-01-21T13:50:25.748Z,3.38
2023-01-21T13:53:23.649Z,3.39
2023-01-21T13:56:08.443Z,3.39
2023-01-21T13:58:47.579Z,3.39
2023-01-21T14:01:26.838Z,3.37
2023-01-21T14:04:07.015Z,3.38
2023-01-21T14:06:49.500Z,3.40
2023-01-21T14:09:25.738Z,3.38
2023-01-21T14:12:02.923Z,3.39
2023-01-21T14:14:56.944Z,3.41
2023-01-21T14:17:47.243Z,3.42
2023-01-21T14:20:53.880Z,3.42
2023-01-21T14:23:42.747Z,3.42
2023-01-21T14:26:26.559Z,3.40
2023-01-21T14:29:11.249Z,3.39
2023-01-21T14:31:48.387Z,3.36
2023-01-21T14:34:27.381Z,3.36
2023-01-21T14:37:08.451Z,3.33
2023-01-21T14:40:02.131Z,3.34
2023-01-21T14:42:43.583Z,3.32
2023-01-21T14:45:19.404Z,3.29
2023-01-21T14:47:54.389Z,3.28
2023-01-21T14:50:54.068Z,3.30
2023-01-21T14:53:28.364Z,3.27
2023-01-21T14:56:16.059Z,3.27
2023-01-21T14:58:52.614Z,3.26
2023-01-21T15:01:32.560Z,3.27
2023-01-21T15:04:09.413Z,3.26
2023-01-21T15:06:43.697Z,3.24
2023-01-21T15:09:23.156Z,3.24
2023-01-21T15:12:01.771Z,3.23
2023-01-21T15:14:37.014Z,3.20
2023-01-21T15:17:47.305Z,3.19
2023-01-21T15:20:48.077Z,3.19
2023-01-21T15:23:39.157Z,3.17
2023-01-21T15:26:32.905Z,3.17
2023-01-21T15:29:34.756Z,3.18
2023-01-21T15:32:30.000Z,3.18
2023-01-21T15:35:12.676Z,3.15
2023-01-21T15:37:47.313Z,3.16
2023-01-21T15:40:21.773Z,3.17
2023-01-21T15:43:01.760Z,3.16
2023-01-21T15:45:48.089Z,3.17
2023-01-21T15:48:42.768Z,3.18
2023-01-21T15:51:29.660Z,3.17
2023-01-21T15:54:16.627Z,3.17
2023-01-21T15:57:01.880Z,3.18
2023-01-21T15:59:54.236Z,3.16
2023-01-21T16:02:32.168Z,3.18
2023-01-21T16:05:21.236Z,3.19
2023-01-21T16:08:09.029Z,3.20
2023-01-21T16:10:53.253Z,3.23
2023-01-21T16:13:38.537Z,3.22
2023-01-21T16:16:17.556Z,3.24
2023-01-21T16:18:59.271Z,3.24
2023-01-21T16:21:35.151Z,3.24
2023-01-21T16:24:13.545Z,3.22
2023-01-21T16:26:46.749Z,3.21
2023-01-21T16:29:19.654Z,3.20
2023-01-21T16:31:59.347Z,3.20
2023-01-21T16:34:43.019Z,3.21
2023-01-21T16:37:19.382Z,3.20
2023-01-21T16:39:56.198Z,3.21
2023-01-21T16:42:33.883Z,3.19
2023-01-21T16:45:10.740Z,3.21
2023-01-21T16:47:43.685Z,3.19
2023-01-21T16:50:23.709Z,3.21
2023-01-21T16:52:58.543Z,3.20
2023-01-21T16:55:31.916Z,3.20
2023-01-21T16:58:19.983Z,3.20
2023-01-21T17:01:01.595Z,3.22
2023-01-21T17:03:34.767Z,3.20
2023-01-21T17:06:15.010Z,3.24
2023-01-21T17:08:53.526Z,3.21
2023-01-21T17:11:26.672Z,3.22
2023-01-21T17:14:01.603Z,3.23
2023-01-21T17:16:37.321Z,3.21
2023-01-21T17:19:22.675Z,3.24
2023-01-21T17:22:01.416Z,3.26
2023-01-21T17:24:39.449Z,3.26
2023-01-21T17:27:17.515Z,3.26
2023-01-21T17:29:50.577Z,3.27
2023-01-21T17:32:28.776Z,3.29
2023-01-21T17:35:13.597Z,3.31
2023-01-21T17:37:54.264Z,3.32
2023-01-21T17:40:32.231Z,3.32
2023-01-21T17:43:19.999Z,3.32
2023-01-21T17:45:56.660Z,3.33
2023-01-21T17:48:33.360Z,3.32
2023-01-21T17:51:08.540Z,3.34
2023-01-21T17:53:51.918Z,3.33
2023-01-21T17:56:42.489Z,3.38
2023-01-21T17:59:28.717Z,3.40
2023-01-21T18:02:02.259Z,3.37
2023-01-21T18:04:35.263Z,3.40
2023-01-21T18:07:16.487Z,3.44
2023-01-21T18:09:51.532Z,3.48
2023-01-21T18:12:24.378Z,3.49
2023-01-21T18:14:58.863Z,3.49
2023-01-21T18:17:31.813Z,3.51
2023-01-21T18:20:05.401Z,3.54
2023-01-21T18:22:38.374Z,3.52
2023-01-21T18:25:15.764Z,3.54
2023-01-21T18:27:54.615Z,3.53
2023-01-21T18:30:29.124Z,3.56
2023-01-21T18:33:02.432Z,3.55
2023-01-21T18:35:35.389Z,3.57
2023-01-21T18:38:12.351Z,3.58
2023-01-21T18:40:47.155Z,3.59
2023-01-21T18:43:20.040Z,3.58
2023-01-21T18:45:54.493Z,3.58
2023-01-21T18:48:30.482Z,3.59
2023-01-21T18:51:03.433Z,3.60
2023-01-21T18:53:36.342Z,3.59
2023-01-21T18:56:15.540Z,3.60
2023-01-21T18:58:48.418Z,3.57
2023-01-21T19:01:23.898Z,3.59
2023-01-21T19:03:57.262Z,3.58
2023-01-21T19:06:30.178Z,3.58
2023-01-21T19:09:03.000Z,3.57
2023-01-21T19:11:37.551Z,3.58
2023-01-21T19:14:10.383Z,3.58
2023-01-21T19:16:44.802Z,3.57
2023-01-21T19:19:19.053Z,3.55
2023-01-21T19:21:53.414Z,3.57
2023-01-21T19:24:26.166Z,3.57
2023-01-21T19:27:01.473Z,3.56
2023-01-21T19:29:34.275Z,3.55
2023-01-21T19:32:08.262Z,3.54
2023-01-21T19:34:41.881Z,3.55
2023-01-21T19:37:17.179Z,3.53
2023-01-21T19:39:50.029Z,3.55
2023-01-21T19:42:26.619Z,3.54
2023-01-21T19:44:59.551Z,3.55
2023-01-21T19:47:32.722Z,3.55
2023-01-21T19:50:06.485Z,3.54
2023-01-21T19:52:39.451Z,3.54
2023-01-21T19:55:15.164Z,3.54
2023-01-21T19:57:56.627Z,3.52
2023-01-21T20:00:31.407Z,3.51
2023-01-21T20:03:04.717Z,3.52
2023-01-21T20:05:37.881Z,3.50
2023-01-21T20:08:14.302Z,3.52
2023-01-21T20:10:47.135Z,3.50
2023-01-21T20:13:21.874Z,3.50
2023-01-21T20:15:54.800Z,3.48
2023-01-21T20:18:29.722Z,3.47
2023-01-21T20:21:02.554Z,3.45
2023-01-21T20:23:36.445Z,3.46
2023-01-21T20:26:14.434Z,3.46
2023-01-21T20:28:51.473Z,3.45
2023-01-21T20:31:24.610Z,3.43
2023-01-21T20:33:57.550Z,3.44
2023-01-21T20:36:30.407Z,3.42
2023-01-21T20:39:03.342Z,3.41
2023-01-21T20:41:36.162Z,3.40
2023-01-21T20:44:10.490Z,3.41
2023-01-21T20:46:45.473Z,3.42
2023-01-21T20:49:18.334Z,3.42
2023-01-21T20:51:51.300Z,3.44
2023-01-21T20:54:24.877Z,3.46
2023-01-21T20:56:57.760Z,3.47
2023-01-21T20:59:32.078Z,3.46
2023-01-21T21:02:04.976Z,3.47
2023-01-21T21:04:38.241Z,3.46
2023-01-21T21:07:16.541Z,3.49
2023-01-21T21:09:49.471Z,3.48
2023-01-21T21:12:22.980Z,3.52
2023-01-21T21:14:57.323Z,3.50
2023-01-21T21:17:30.376Z,3.50
2023-01-21T21:20:03.603Z,3.51
2023-01-21T21:22:36.736Z,3.49
2023-01-21T21:25:14.745Z,3.50
2023-01-21T21:27:48.441Z,3.50
2023-01-21T21:30:24.512Z,3.51
2023-01-21T21:32:59.466Z,3.49
2023-01-21T21:35:34.164Z,3.50
2023-01-21T21:38:08.775Z,3.50
2023-01-21T21:40:45.601Z,3.52
2023-01-21T21:43:35.634Z,3.52
2023-01-21T21:46:30.692Z,3.51
2023-01-21T21:49:03.734Z,3.52
2023-01-21T21:51:38.087Z,3.51
2023-01-21T21:54:11.562Z,3.51
2023-01-21T21:56:44.751Z,3.50
2023-01-21T21:59:17.653Z,3.49
2023-01-21T22:01:51.946Z,3.51
2023-01-21T22:04:24.943Z,3.51
2023-01-21T22:06:58.053Z,3.48
2023-01-21T22:09:31.003Z,3.47
2023-01-21T22:12:04.226Z,3.49
2023-01-21T22:14:37.086Z,3.50
2023-01-21T22:17:11.727Z,3.49
2023-01-21T22:19:45.574Z,3.48
2023-01-21T22:22:18.503Z,3.50
2023-01-21T22:24:54.319Z,3.50
2023-01-21T22:27:27.555Z,3.47
2023-01-21T22:30:01.539Z,3.46
2023-01-21T22:32:35.981Z,3.47
2023-01-21T22:35:09.487Z,3.44
2023-01-21T22:37:42.576Z,3.45
2023-01-21T22:40:16.300Z,3.44
2023-01-21T22:42:49.249Z,3.44
2023-01-21T22:45:22.447Z,3.45
2023-01-21T22:47:56.996Z,3.45
2023-01-21T22:50:30.534Z,3.44
2023-01-21T22:53:03.476Z,3.45
2023-01-21T22:55:36.496Z,3.46
2023-01-21T22:58:09.497Z,3.45
2023-01-21T23:00:43.048Z,3.45
2023-01-21T23:03:17.661Z,3.47
2023-01-21T23:05:51.030Z,3.49
2023-01-21T23:08:23.965Z,3.50
2023-01-21T23:11:01.690Z,3.53
2023-01-21T23:13:35.585Z,3.52
2023-01-21T23:16:10.418Z,3.55
2023-01-21T23:18:44.854Z,3.56
2023-01-21T23:21:20.695Z,3.57
2023-01-21T23:23:53.893Z,3.56
2023-01-21T23:26:26.917Z,3.58
2023-01-21T23:29:00.101Z,3.57
2023-01-21T23:31:33.237Z,3.56
2023-01-21T23:34:07.581Z,3.56
2023-01-21T23:36:40.548Z,3.53
2023-01-21T23:39:15.657Z,3.53
2023-01-21T23:41:48.533Z,3.51
2023-01-21T23:44:21.405Z,3.51
2023-01-21T23:46:54.295Z,3.49
2023-01-21T23:49:28.761Z,3.49
2023-01-21T23:52:01.603Z,3.42
2023-01-21T23:54:37.501Z,3.45
2023-01-21T23:57:11.356Z,3.41
2023-01-21T23:59:45.145Z,3.39
